^^
Station Historical Data
Daily Summary for October 23, 2017 Units:  Metric    English   Both
« Previous Day
Next Day »
Daily Weekly Monthly Yearly Custom
  High: Low: Average:
Temperature: 29 °C 13 °C 19.7 °C
Dew Point: 8.6 °C 0.6 °C 5.9 °C
Humidity: 72% 17% 44%
Wind Speed: 32km/h 1.4km/h 16.6km/h
Wind Gust: 37km/h - -
Wind- - SSW
Pressure: 1013.4 hPa 1009 hPa -
Precipitation: 0 mm    
Historical Graphs
 
 
Tabular Data for October 23, 2017
Time Temperature Dew Point Pressure Wind Wind Speed Wind Gust Humidity Rainfall Rate (Hourly) solar Conditions
00:06 20.9 °C 6.4 °C 1010 hPa SSW 9.7 km/h 14.5 km/h 39% 0 mm 0.0 W/m2
00:12 20.9 °C 6.4 °C 1010 hPa SSW 9.7 km/h 12.9 km/h 39% 0 mm 0.0 W/m2
00:22 20.8 °C 6.7 °C 1010 hPa SSW 11.1 km/h 16.1 km/h 40% 0 mm 0.0 W/m2
00:27 20.8 °C 6.7 °C 1010 hPa SSW 11.1 km/h 14.5 km/h 40% 0 mm 0.0 W/m2
00:32 20.8 °C 7.1 °C 1010 hPa SSW 11.1 km/h 16.1 km/h 41% 0 mm 0.0 W/m2
00:42 20.7 °C 7 °C 1009.7 hPa SSW 13 km/h 16.1 km/h 41% 0 mm 0.0 W/m2
00:52 20.4 °C 6.7 °C 1009.7 hPa SSW 9.7 km/h 12.9 km/h 41% 0 mm 0.0 W/m2
00:57 20.3 °C 6.6 °C 1009.7 hPa SSW 9.7 km/h 11.3 km/h 41% 0 mm 0.0 W/m2
01:02 20.2 °C 6.9 °C 1009.7 hPa SSW 9.7 km/h 14.5 km/h 42% 0 mm 0.0 W/m2
01:12 20.1 °C 6.4 °C 1009.7 hPa SSW 13 km/h 14.5 km/h 41% 0 mm 0.0 W/m2
01:17 20 °C 6.3 °C 1009.7 hPa SSW 9.7 km/h 14.5 km/h 41% 0 mm 0.0 W/m2
01:22 19.9 °C 6.3 °C 1009.4 hPa SSW 9.7 km/h 12.9 km/h 41% 0 mm 0.0 W/m2
01:32 19.6 °C 6.3 °C 1009.7 hPa SSW 4.7 km/h 9.7 km/h 42% 0 mm 0.0 W/m2
01:42 19.4 °C 5.8 °C 1009.4 hPa SSW 11.1 km/h 12.9 km/h 41% 0 mm 0.0 W/m2
01:47 19.4 °C 5.8 °C 1009.4 hPa SSW 7.9 km/h 12.9 km/h 41% 0 mm 0.0 W/m2
01:52 19.5 °C 5.9 °C 1009.4 hPa SSW 9.7 km/h 12.9 km/h 41% 0 mm 0.0 W/m2
02:02 19.7 °C 5.7 °C 1009 hPa SSW 13 km/h 17.7 km/h 40% 0 mm 0.0 W/m2
02:07 19.7 °C 5.4 °C 1009 hPa SSW 16.3 km/h 19.3 km/h 39% 0 mm 0.0 W/m2
02:18 19.6 °C 4.9 °C 1009 hPa SSW 11.1 km/h 17.7 km/h 38% 0 mm 0.0 W/m2
02:23 19.6 °C 4.9 °C 1009 hPa SSW 11.1 km/h 19.3 km/h 38% 0 mm 0.0 W/m2
02:29 19.4 °C 4.7 °C 1009 hPa SSW 13 km/h 13 km/h 38% 0 mm 0.0 W/m2
02:38 19.2 °C 4.9 °C 1009 hPa SSW 14.3 km/h 16.1 km/h 39% 0 mm 0.0 W/m2
02:48 19 °C 4.7 °C 1009.4 hPa SSW 7.9 km/h 11.3 km/h 39% 0 mm 0.0 W/m2
02:53 18.9 °C 4.6 °C 1009.4 hPa SSW 6.4 km/h 9.7 km/h 39% 0 mm 0.0 W/m2
02:58 18.6 °C 5.8 °C 1009 hPa SSW 6.4 km/h 11.3 km/h 43% 0 mm 0.0 W/m2
03:03 18.3 °C 5.8 °C 1009 hPa SSW 6.4 km/h 9.7 km/h 44% 0 mm 0.0 W/m2
03:13 17.9 °C 5.5 °C 1009.4 hPa SSW 7.9 km/h 11.3 km/h 44% 0 mm 0.0 W/m2
03:23 17.9 °C 5.5 °C 1009 hPa SSW 7.9 km/h 11.3 km/h 44% 0 mm 0.0 W/m2
03:28 17.8 °C 5.7 °C 1009 hPa SSW 7.9 km/h 9.7 km/h 45% 0 mm 0.0 W/m2
03:38 17.7 °C 5.6 °C 1009 hPa SSW 7.9 km/h 9.7 km/h 45% 0 mm 0.0 W/m2
03:43 17.7 °C 5.6 °C 1009 hPa SSW 6.4 km/h 8 km/h 45% 0 mm 0.0 W/m2
03:48 17.5 °C 5.7 °C 1009 hPa SSW 7.9 km/h 9.7 km/h 46% 0 mm 0.0 W/m2
03:58 17.1 °C 5.7 °C 1009.4 hPa SSW 7.9 km/h 11.3 km/h 47% 0 mm 0.0 W/m2
04:08 16.6 °C 6.1 °C 1009.7 hPa SSW 14.3 km/h 16.1 km/h 50% 0 mm 0.0 W/m2
04:18 16.2 °C 6.3 °C 1009.7 hPa SSW 13 km/h 19.3 km/h 52% 0 mm 0.0 W/m2
04:23 16.1 °C 6.2 °C 1010 hPa SSW 13 km/h 14.5 km/h 52% 0 mm 0.0 W/m2
04:33 15.7 °C 6.7 °C 1009.7 hPa SSW 14.3 km/h 14.5 km/h 55% 0 mm 0.0 W/m2
04:38 15.6 °C 6.9 °C 1009.7 hPa SSW 14.3 km/h 17.7 km/h 56% 0 mm 0.0 W/m2
04:43 15.4 °C 6.9 °C 1009.7 hPa SSW 13 km/h 17.7 km/h 57% 0 mm 0.0 W/m2
04:48 15.2 °C 7.2 °C 1009.7 hPa SSW 17.7 km/h 20.9 km/h 59% 0 mm 0.0 W/m2
04:54 15 °C 7.1 °C 1009.7 hPa SSW 20.9 km/h 20.9 km/h 59% 0 mm 0.0 W/m2
04:59 14.8 °C 7.1 °C 1009.7 hPa SSW 19.5 km/h 20.9 km/h 60% 0 mm 0.0 W/m2
05:04 14.7 °C 7.3 °C 1009.7 hPa SSW 11.1 km/h 17.7 km/h 61% 0 mm 0.0 W/m2
05:14 14.6 °C 7.4 °C 1009.7 hPa SSW 11.1 km/h 16.1 km/h 62% 0 mm 0.0 W/m2
05:19 14.4 °C 7.2 °C 1009.7 hPa SSW 19.5 km/h 20.9 km/h 62% 0 mm 0.0 W/m2
05:24 14.3 °C 7.4 °C 1009.7 hPa SSW 14.3 km/h 20.9 km/h 63% 0 mm 0.0 W/m2
05:29 14.1 °C 7.8 °C 1009.7 hPa SSW 13 km/h 17.7 km/h 66% 0 mm 0.0 W/m2
05:34 13.8 °C 7.8 °C 1009.7 hPa SSW 4.7 km/h 12.9 km/h 67% 0 mm 0.0 W/m2
05:40 13.7 °C 7.5 °C 1009.7 hPa SSW 11.1 km/h 12.9 km/h 66% 0 mm 0.0 W/m2
05:45 13.6 °C 7.8 °C 1009.7 hPa SSW 13 km/h 17.7 km/h 68% 0 mm 0.0 W/m2
05:51 13.4 °C 7.8 °C 1009.7 hPa SSW 11.1 km/h 17.7 km/h 69% 0 mm 0.0 W/m2
05:56 13.2 °C 7.8 °C 1009.7 hPa SSW 1.4 km/h 9.7 km/h 70% 0 mm 0.0 W/m2
06:00 13.2 °C 7.8 °C 1009.7 hPa SSW 17.7 km/h 19.3 km/h 70% 0 mm 0.0 W/m2
06:09 13.3 °C 7.7 °C 1010 hPa SSW 16.3 km/h 24.1 km/h 69% 0 mm 5.0 W/m2
06:15 13.2 °C 7.8 °C 1010 hPa SSW 14.3 km/h 22.5 km/h 70% 0 mm 9.0 W/m2
06:20 13.2 °C 8.1 °C 1010 hPa SSW 16.3 km/h 20.9 km/h 71% 0 mm 14.0 W/m2
06:30 13 °C 8.1 °C 1010 hPa SSW 17.7 km/h 20.9 km/h 72% 0 mm 25.0 W/m2
06:39 13.1 °C 8.2 °C 1010.4 hPa SSW 17.7 km/h 22.5 km/h 72% 0 mm 51.0 W/m2
06:44 13.2 °C 8.3 °C 1010.4 hPa SSW 17.7 km/h 22.5 km/h 72% 0 mm 67.0 W/m2
06:50 13.2 °C 8.3 °C 1010.4 hPa SSW 19.5 km/h 25.7 km/h 72% 0 mm 84.0 W/m2
07:01 13.3 °C 8.4 °C 1010.7 hPa SSW 19.5 km/h 19.5 km/h 72% 0 mm 123.0 W/m2
07:07 13.4 °C 8.2 °C 1010.7 hPa SSW 19.5 km/h 22.5 km/h 71% 0 mm 144.0 W/m2
07:36 14 °C 8.6 °C 1011.4 hPa SSW 17.7 km/h 22.5 km/h 70% 0 mm 246.0 W/m2
07:49 14.8 °C 8.5 °C 1011.7 hPa SSW 20.9 km/h 22.5 km/h 66% 0 mm 301.0 W/m2
08:00 15.3 °C 8.5 °C 1011.7 hPa SSW 16.3 km/h 24.1 km/h 64% 0 mm 336.0 W/m2
08:16 15.4 °C 8.4 °C 1011.4 hPa SSW 22.7 km/h 25.7 km/h 63% 0 mm 392.0 W/m2
08:30 16.2 °C 8.4 °C 1011.7 hPa SW 19.5 km/h 25.7 km/h 60% 0 mm 445.0 W/m2
08:56 17.1 °C 8.3 °C 1012.1 hPa SW 24.1 km/h 24.1 km/h 56% 0 mm 529.0 W/m2
09:12 17.8 °C 8.1 °C 1012.1 hPa SW 17.7 km/h 19.3 km/h 53% 0 mm 580.0 W/m2
10:10 20.2 °C 8.2 °C 1012.4 hPa SW 25.9 km/h 25.9 km/h 46% 0 mm 747.0 W/m2
10:41 21.2 °C 7.8 °C 1012.4 hPa SW 16.3 km/h 24.1 km/h 42% 0 mm 823.0 W/m2
10:49 21.4 °C 8 °C 1012.4 hPa SW 16.3 km/h 27.4 km/h 42% 0 mm 838.0 W/m2
11:00 21.9 °C 7.7 °C 1012.4 hPa SW 22.7 km/h 24.1 km/h 40% 0 mm 860.0 W/m2
11:30 23.2 °C 7.3 °C 1012.1 hPa SSW 20.9 km/h 27.4 km/h 36% 0 mm 904.0 W/m2
11:40 23.6 °C 7.2 °C 1012.1 hPa SW 22.7 km/h 27.4 km/h 35% 0 mm 912.0 W/m2
12:23 24.1 °C 6.8 °C 1012.1 hPa SSW 24.1 km/h 32.2 km/h 33% 0 mm 939.0 W/m2
12:39 25.2 °C 6.4 °C 1012.1 hPa SW 25.9 km/h 33.8 km/h 30% 0 mm 940.0 W/m2
12:54 25.6 °C 5.7 °C 1011.7 hPa SW 22.7 km/h 37 km/h 28% 0 mm 937.0 W/m2
13:09 26.3 °C 5.3 °C 1011.7 hPa SSW 14.3 km/h 29 km/h 26% 0 mm 937.0 W/m2
13:23 27.4 °C 4.4 °C 1011.7 hPa SSW 22.7 km/h 33.8 km/h 23% 0 mm 926.0 W/m2
13:39 27.7 °C 4 °C 1011.4 hPa SSW 19.5 km/h 33.8 km/h 22% 0 mm 912.0 W/m2
13:52 28.3 °C 3.2 °C 1011.4 hPa SW 25.9 km/h 30.6 km/h 20% 0 mm 893.0 W/m2
14:03 28.2 °C 3.1 °C 1011.4 hPa SW 24.1 km/h 37 km/h 20% 0 mm 875.0 W/m2
14:11 28.5 °C 2.6 °C 1011.4 hPa SSE 22.7 km/h 29 km/h 19% 0 mm 865.0 W/m2
14:21 28.7 °C 2.8 °C 1011.4 hPa South 30.6 km/h 35.4 km/h 19% 0 mm 846.0 W/m2
14:34 29 °C 2.3 °C 1011.1 hPa South 25.9 km/h 33.8 km/h 18% 0 mm 824.0 W/m2
14:49 28.7 °C 2 °C 1011.1 hPa South 27.4 km/h 29 km/h 18% 0 mm 796.0 W/m2
15:04 28.9 °C 1.4 °C 1010.7 hPa South 25.9 km/h 33.8 km/h 17% 0 mm 759.0 W/m2
15:54 28.7 °C 2 °C 1010.7 hPa South 28.8 km/h 30.6 km/h 18% 0 mm 615.0 W/m2
16:10 28.7 °C 2.8 °C 1010.4 hPa South 32 km/h 33.8 km/h 19% 0 mm 571.0 W/m2
16:24 28.7 °C 1.2 °C 1010.4 hPa South 25.9 km/h 35.4 km/h 17% 0 mm 520.0 W/m2
16:50 28.7 °C 2 °C 1010.4 hPa South 25.9 km/h 35.4 km/h 18% 0 mm 436.0 W/m2
17:05 28.2 °C 2.4 °C 1010.4 hPa SSW 20.9 km/h 33.8 km/h 19% 0 mm 381.0 W/m2
17:19 27.9 °C 2.1 °C 1010.7 hPa South 28.8 km/h 32.2 km/h 19% 0 mm 329.0 W/m2
17:29 27.8 °C 2.1 °C 1010.7 hPa South 24.1 km/h 33.8 km/h 19% 0 mm 290.0 W/m2
17:39 27.6 °C 1.9 °C 1010.7 hPa South 28.8 km/h 32.2 km/h 19% 0 mm 253.0 W/m2
17:50 27.5 °C 2.5 °C 1010.7 hPa South 24.1 km/h 33.8 km/h 20% 0 mm 216.0 W/m2
18:55 25.4 °C 1.5 °C 1011.1 hPa South 22.7 km/h 33.8 km/h 21% 0 mm 11.0 W/m2
19:05 25.1 °C 0.6 °C 1011.1 hPa South 19.5 km/h 32.2 km/h 20% 0 mm 5.0 W/m2
20:47 21.9 °C 4.9 °C 1012.1 hPa SSW 22.7 km/h 29 km/h 33% 0 mm 0.0 W/m2
21:25 20.6 °C 5.8 °C 1012.1 hPa SSW 22.7 km/h 27.4 km/h 38% 0 mm 0.0 W/m2
21:47 20.1 °C 6.1 °C 1012.4 hPa SW 24.1 km/h 25.7 km/h 40% 0 mm 0.0 W/m2
22:02 19.6 °C 6 °C 1012.4 hPa SSW 20.9 km/h 32.2 km/h 41% 0 mm 0.0 W/m2
22:16 19.2 °C 5.6 °C 1012.4 hPa SSW 24.1 km/h 29 km/h 41% 0 mm 0.0 W/m2
22:30 18.8 °C 5.6 °C 1012.8 hPa SSW 24.1 km/h 32.2 km/h 42% 0 mm 0.0 W/m2
22:48 18.3 °C 6.2 °C 1012.8 hPa SSW 19.5 km/h 30.6 km/h 45% 0 mm 0.0 W/m2
22:57 18.1 °C 6.3 °C 1012.8 hPa SSW 22.7 km/h 29 km/h 46% 0 mm 0.0 W/m2
23:12 17.8 °C 6.3 °C 1013.1 hPa SSW 13 km/h 22.5 km/h 47% 0 mm 0.0 W/m2
23:32 17.5 °C 6.4 °C 1013.1 hPa SSW 13 km/h 22.5 km/h 48% 0 mm 0.0 W/m2
23:46 17.2 °C 6.4 °C 1013.4 hPa SW 19.5 km/h 24.1 km/h 49% 0 mm 0.0 W/m2
23:52 17.2 °C 6.4 °C 1013.4 hPa SW 13 km/h 17.7 km/h 49% 0 mm 0.0 W/m2
Canyon Roadhouse, Fishriver Canyon, Namibia
Compliments of Weather Underground - 2.25 mb